Usina Santa Rita Airport

SDSQ · São Paulo, 巴西

使用的METAR站距离机场43 km。
罗盘
风向 的 风向 的 风向 到 风向 020° Usina Santa Rita Airport 3/21
风: 5 kt, 2 beaufort

5 kt

1 kt
改变
0 ft 1.000 2.000 3.000 4.000 5.000
CAVOK
METAR SBYS 241800Z 02005KT 320V060 CAVOK 28/07 Q1023

METAR Usina Santa Rita Airport - SDSQ

Usina Santa Rita Airport是,巴西中的小机场。 该机场位于纬度-21,72528和经度-47,65755。 该机场有一条跑道: 3/21. 本场的ICAO机场代码为SDSQ。 机场在Brasilia FIR中。

该航空气象观测是针对Campo Fontenelle在2024年7月24日 15:00, 当地时间进行的。

机场观察

风向为020°,速度为5 kt。 风向在320°和060°之间变化。

天气为CAVOK。这意味着在5.000 ft或MSA(最低安全高度)以下(以较高者为准)以下没有云。这也意味着没有观测到积雨云或高耸的积云,可见度为10 km 或者更多或更高。此外,不会有雾,降雨或其他重要天气。

温度和风寒是28 °C。 露点为7 °C,相对湿度为26%。 海平面上的气压为1023 hPa (QNH)。

白天

今天,太阳从06:46升起,在17:48降落。 这适用于Usina Santa Rita Airport,世界夏令时可能有所不同。 当地时间与世界标准时间之间的时差为-3 小时。 夏令时目前正在进行中。

公司介绍

我们没有关于这个机场的公司信息。

体会

到Vliegles.nl去找飞行课程,跳伞和其他飞行体验。 浏览页面,了解Usina Santa Rita Airport附近所有可用的活动。 你也可以使用搜索功能来寻找你所在地附近的特定飞行课程、跳伞或其他飞行体验。

跑道

Id 标题 侧风 逆风 侧风 %
3/21 013°-193° 5 kt 12 %

逆风成分最大的方向会被突出显示,并用于横风计算。 这并不一定意味着这个方向在使用。

温度 & 天气

温度 28 °C
露点 7 °C
相对湿度 26%
Kp-index 0 (0-9)

白天

日出
06:45
中午
12:15
日落
17:46 (2:14)

小工具

你想在你的网站上有一个关于Usina Santa Rita Airport的当前航空天气(METAR)的小部件吗?

显示HTML代码
报告变更